186  
UXUS97 KREV 281345  
SRGREV  
 
SOARING FORECAST  
NATIONAL WEATHER SERVICE - RENO NV  
700 AM PDT TUE MAR 28 2017  
 
THIS SOARING FORECAST IS FOR THE EASTERN SIERRA AND WESTERN NEVADA  
WITH SPECIFIC INDICES FOR THE GREATER RENO AREA.  
 
THIS FORECAST IS PREPARED DAILY BY 700 AM AND IS NOT UPDATED.  
 
FOR CURRENT FLIGHT CONDITIONS...FORECASTS...AND ADVISORIES...ACCESS  
YOUR LOCAL BRIEFING OUTLET OR FLIGHT SERVICE STATION.  
 
*******************************************************************  
FORECASTED LOCAL INDICES FOR RENO: TODAY YESTERDAY  
FORECASTED MAX TEMP AT RENO (DEG F)..... 61 52  
FORECASTED TRIGGER TEMPERATURE (DEG F).. 45 44  
EXCEEDED YESTERDAY BY 955 AM PDT  
FORECASTED MAXIMUM ALTITUDE (FT MSL).... 11700 14900  
FORECASTED SOARING INDEX (FPM).......... 381 837  
FORECASTED K-INDEX.........VALID 18Z.... 8 22  
FORECASTED K-INDEX.........VALID 00Z.... 15 17  
FORECASTED LIFTED INDEX....VALID 18Z.... 11 5  
FORECASTED LIFTED INDEX....VALID 00Z.... 8 8  
 
AFTERNOON WINDS ALOFT FORECAST  
MSL (FT) WIND/TEMP  
9000 0307/-01  
10000 -1911/-01  
12000 3520/-02  
14000 3323/-06  
16000 3227/-10  
18000 3238/-14  
24000 3354/-26  
30000 3370/-44  
34000 3375/-55  
39000 3477/-67  
 
SLIDE MOUNTAIN DATA:  
DATE TIME TEMP DEWPT RH WIND (MPH)  
(F) (F) | DIR SPEED GUST  
2017-03-28 04:50 21 9 46 | 026 7 9  
2017-03-28 04:30 22 9 45 | 036 6 9  
2017-03-28 04:20 23 4 30 | 012 8 9  
2017-03-28 04:00 22 9 44 | 033 7 9  
 
RENO TAF FORECAST:  
KRNO 281120Z 2812/2912 VRB04KT P6SM FEW200  
FM282100 04006KT P6SM SCT200  
FM290300 VRB04KT P6SM SCT200  
 
CARSON CITY TAF FORECAST:  
KCXP 281120Z 2812/2912 27005KT P6SM SCT200  
FM281900 06010KT P6SM SCT200  
FM290300 VRB03KT P6SM SCT200  
 
OUTLOOK FOR THE RENO-CARSON CITY-MINDEN AREA:   
WEDNESDAY
 
PARTLY CLOUDY. HIGHS 66 TO 71. LIGHT WINDS.  
 
SUNRISE AND SUNSET  
MARCH 28 2017.........SUNRISE 649 AM PDT SUNSET 719 PM PDT  
MARCH 29 2017.........SUNRISE 648 AM PDT SUNSET 720 PM PDT  
 
CLICK HERE TO GO TO PREVIOUS BULLETINS.

The Nexlab NV Page
The Nexlab CA Page Main Text Page